sensor_id;sensor_type;location;lat;lon;timestamp;P1;durP1;ratioP1;P2;durP2;ratioP2
22752;SDS011;11543;43.144;24.684;2022-10-28T00:00:23;7.30;;;3.10;;
22752;SDS011;11543;43.144;24.684;2022-10-28T00:02:48;4.72;;;3.03;;
22752;SDS011;11543;43.144;24.684;2022-10-28T00:05:14;4.57;;;2.60;;
22752;SDS011;11543;43.144;24.684;2022-10-28T00:07:39;5.40;;;2.97;;
22752;SDS011;11543;43.144;24.684;2022-10-28T00:10:05;7.45;;;2.88;;
22752;SDS011;11543;43.144;24.684;2022-10-28T00:12:35;7.00;;;3.05;;
22752;SDS011;11543;43.144;24.684;2022-10-28T00:15:01;7.82;;;4.47;;
22752;SDS011;11543;43.144;24.684;2022-10-28T00:17:27;9.27;;;5.03;;
22752;SDS011;11543;43.144;24.684;2022-10-28T00:19:53;9.93;;;5.18;;
22752;SDS011;11543;43.144;24.684;2022-10-28T00:22:18;11.85;;;5.13;;
22752;SDS011;11543;43.144;24.684;2022-10-28T00:24:44;11.25;;;5.22;;
22752;SDS011;11543;43.144;24.684;2022-10-28T00:27:09;8.85;;;5.57;;
22752;SDS011;11543;43.144;24.684;2022-10-28T00:29:35;7.22;;;4.80;;
22752;SDS011;11543;43.144;24.684;2022-10-28T00:32:00;9.80;;;4.47;;
22752;SDS011;11543;43.144;24.684;2022-10-28T00:34:26;7.45;;;4.18;;
22752;SDS011;11543;43.144;24.684;2022-10-28T00:36:51;6.72;;;4.03;;
22752;SDS011;11543;43.144;24.684;2022-10-28T00:39:18;7.20;;;3.95;;
22752;SDS011;11543;43.144;24.684;2022-10-28T00:41:50;7.72;;;3.90;;
22752;SDS011;11543;43.144;24.684;2022-10-28T00:47:03;10.45;;;4.10;;
22752;SDS011;11543;43.144;24.684;2022-10-28T00:49:37;8.85;;;3.72;;
22752;SDS011;11543;43.144;24.684;2022-10-28T00:52:03;7.00;;;3.63;;
22752;SDS011;11543;43.144;24.684;2022-10-28T00:54:33;8.18;;;4.40;;
22752;SDS011;11543;43.144;24.684;2022-10-28T00:57:00;6.18;;;3.92;;
22752;SDS011;11543;43.144;24.684;2022-10-28T00:59:30;6.93;;;3.65;;
22752;SDS011;11543;43.144;24.684;2022-10-28T01:01:58;10.07;;;4.07;;
22752;SDS011;11543;43.144;24.684;2022-10-28T01:04:24;13.38;;;6.95;;
22752;SDS011;11543;43.144;24.684;2022-10-28T01:06:49;18.48;;;7.95;;
22752;SDS011;11543;43.144;24.684;2022-10-28T01:09:15;15.75;;;7.18;;
22752;SDS011;11543;43.144;24.684;2022-10-28T01:39:48;11.25;;;4.60;;
22752;SDS011;11543;43.144;24.684;2022-10-28T01:51:01;7.32;;;4.13;;
22752;SDS011;11543;43.144;24.684;2022-10-28T01:53:32;8.52;;;4.07;;
22752;SDS011;11543;43.144;24.684;2022-10-28T01:56:04;5.10;;;3.40;;
22752;SDS011;11543;43.144;24.684;2022-10-28T01:58:35;6.63;;;3.40;;
22752;SDS011;11543;43.144;24.684;2022-10-28T02:01:03;7.25;;;3.22;;
22752;SDS011;11543;43.144;24.684;2022-10-28T02:03:30;5.82;;;3.50;;
22752;SDS011;11543;43.144;24.684;2022-10-28T02:05:56;7.05;;;3.40;;
22752;SDS011;11543;43.144;24.684;2022-10-28T02:08:48;7.93;;;3.80;;
22752;SDS011;11543;43.144;24.684;2022-10-28T02:11:33;8.32;;;4.00;;
22752;SDS011;11543;43.144;24.684;2022-10-28T02:16:50;7.05;;;3.30;;
22752;SDS011;11543;43.144;24.684;2022-10-28T02:32:58;5.13;;;3.10;;
22752;SDS011;11543;43.144;24.684;2022-10-28T02:35:28;5.90;;;3.17;;
22752;SDS011;11543;43.144;24.684;2022-10-28T02:37:57;4.13;;;2.65;;
22752;SDS011;11543;43.144;24.684;2022-10-28T02:40:29;5.72;;;3.10;;
22752;SDS011;11543;43.144;24.684;2022-10-28T02:42:58;5.63;;;2.95;;
22752;SDS011;11543;43.144;24.684;2022-10-28T02:45:28;6.10;;;2.72;;
22752;SDS011;11543;43.144;24.684;2022-10-28T02:47:59;8.25;;;3.13;;
22752;SDS011;11543;43.144;24.684;2022-10-28T02:50:33;5.40;;;2.95;;
22752;SDS011;11543;43.144;24.684;2022-10-28T02:53:01;5.63;;;2.75;;
22752;SDS011;11543;43.144;24.684;2022-10-28T02:55:36;5.95;;;3.13;;
22752;SDS011;11543;43.144;24.684;2022-10-28T02:58:06;6.53;;;3.20;;
22752;SDS011;11543;43.144;24.684;2022-10-28T03:00:32;6.20;;;2.78;;
22752;SDS011;11543;43.144;24.684;2022-10-28T03:02:57;8.65;;;3.10;;
22752;SDS011;11543;43.144;24.684;2022-10-28T03:05:23;7.72;;;2.83;;
22752;SDS011;11543;43.144;24.684;2022-10-28T03:07:48;8.20;;;3.35;;
22752;SDS011;11543;43.144;24.684;2022-10-28T03:10:14;5.65;;;3.17;;
22752;SDS011;11543;43.144;24.684;2022-10-28T03:12:40;6.88;;;3.20;;
22752;SDS011;11543;43.144;24.684;2022-10-28T03:15:05;7.47;;;3.50;;
22752;SDS011;11543;43.144;24.684;2022-10-28T03:17:31;8.75;;;3.58;;
22752;SDS011;11543;43.144;24.684;2022-10-28T03:19:57;10.02;;;3.67;;
22752;SDS011;11543;43.144;24.684;2022-10-28T03:22:22;6.13;;;3.63;;
22752;SDS011;11543;43.144;24.684;2022-10-28T03:24:47;7.43;;;3.80;;
22752;SDS011;11543;43.144;24.684;2022-10-28T03:27:13;6.82;;;3.78;;
22752;SDS011;11543;43.144;24.684;2022-10-28T03:29:38;6.10;;;3.47;;
22752;SDS011;11543;43.144;24.684;2022-10-28T03:32:04;8.43;;;3.67;;
22752;SDS011;11543;43.144;24.684;2022-10-28T03:34:29;4.65;;;3.15;;
22752;SDS011;11543;43.144;24.684;2022-10-28T03:36:55;5.68;;;2.95;;
22752;SDS011;11543;43.144;24.684;2022-10-28T03:39:20;4.95;;;3.25;;
22752;SDS011;11543;43.144;24.684;2022-10-28T03:41:46;6.90;;;4.07;;
22752;SDS011;11543;43.144;24.684;2022-10-28T03:44:11;6.35;;;3.63;;
22752;SDS011;11543;43.144;24.684;2022-10-28T03:46:36;7.93;;;4.22;;
22752;SDS011;11543;43.144;24.684;2022-10-28T03:49:02;7.40;;;4.30;;
22752;SDS011;11543;43.144;24.684;2022-10-28T03:51:28;9.27;;;4.40;;
22752;SDS011;11543;43.144;24.684;2022-10-28T03:53:53;7.97;;;4.13;;
22752;SDS011;11543;43.144;24.684;2022-10-28T03:56:19;7.57;;;4.75;;
22752;SDS011;11543;43.144;24.684;2022-10-28T03:58:48;7.28;;;4.25;;
22752;SDS011;11543;43.144;24.684;2022-10-28T04:01:14;5.65;;;3.83;;
22752;SDS011;11543;43.144;24.684;2022-10-28T04:03:39;7.22;;;3.60;;
22752;SDS011;11543;43.144;24.684;2022-10-28T04:06:05;6.43;;;4.00;;
22752;SDS011;11543;43.144;24.684;2022-10-28T04:08:30;8.23;;;4.07;;
22752;SDS011;11543;43.144;24.684;2022-10-28T04:10:56;6.93;;;3.83;;
22752;SDS011;11543;43.144;24.684;2022-10-28T04:13:21;7.53;;;4.00;;
22752;SDS011;11543;43.144;24.684;2022-10-28T04:15:47;7.60;;;3.85;;
22752;SDS011;11543;43.144;24.684;2022-10-28T04:18:12;6.65;;;3.90;;
22752;SDS011;11543;43.144;24.684;2022-10-28T04:20:38;6.72;;;3.72;;
22752;SDS011;11543;43.144;24.684;2022-10-28T04:23:03;9.35;;;4.10;;
22752;SDS011;11543;43.144;24.684;2022-10-28T04:25:29;9.15;;;3.95;;
22752;SDS011;11543;43.144;24.684;2022-10-28T04:27:55;7.55;;;3.85;;
22752;SDS011;11543;43.144;24.684;2022-10-28T04:30:20;7.75;;;3.90;;
22752;SDS011;11543;43.144;24.684;2022-10-28T04:32:46;12.15;;;5.43;;
22752;SDS011;11543;43.144;24.684;2022-10-28T04:35:12;13.25;;;5.35;;
22752;SDS011;11543;43.144;24.684;2022-10-28T04:37:38;12.70;;;5.32;;
22752;SDS011;11543;43.144;24.684;2022-10-28T04:40:05;11.20;;;5.38;;
22752;SDS011;11543;43.144;24.684;2022-10-28T04:42:31;11.02;;;5.30;;
22752;SDS011;11543;43.144;24.684;2022-10-28T04:44:57;10.43;;;5.00;;
22752;SDS011;11543;43.144;24.684;2022-10-28T04:47:22;10.05;;;5.30;;
22752;SDS011;11543;43.144;24.684;2022-10-28T04:49:48;10.40;;;5.10;;
22752;SDS011;11543;43.144;24.684;2022-10-28T04:52:13;9.35;;;4.90;;
22752;SDS011;11543;43.144;24.684;2022-10-28T04:54:39;14.05;;;5.30;;
22752;SDS011;11543;43.144;24.684;2022-10-28T04:57:04;8.43;;;5.13;;
22752;SDS011;11543;43.144;24.684;2022-10-28T04:59:30;10.48;;;5.13;;
22752;SDS011;11543;43.144;24.684;2022-10-28T05:01:55;13.63;;;5.43;;
22752;SDS011;11543;43.144;24.684;2022-10-28T05:04:21;10.77;;;5.25;;
22752;SDS011;11543;43.144;24.684;2022-10-28T05:06:46;11.05;;;5.65;;
22752;SDS011;11543;43.144;24.684;2022-10-28T05:09:12;13.02;;;5.43;;
22752;SDS011;11543;43.144;24.684;2022-10-28T05:11:37;10.65;;;5.70;;
22752;SDS011;11543;43.144;24.684;2022-10-28T05:14:03;12.73;;;5.28;;
22752;SDS011;11543;43.144;24.684;2022-10-28T05:16:28;8.75;;;5.00;;
22752;SDS011;11543;43.144;24.684;2022-10-28T05:18:54;12.45;;;5.47;;
22752;SDS011;11543;43.144;24.684;2022-10-28T05:21:19;9.80;;;5.15;;
22752;SDS011;11543;43.144;24.684;2022-10-28T05:23:45;9.63;;;4.75;;
22752;SDS011;11543;43.144;24.684;2022-10-28T05:26:11;10.02;;;5.00;;
22752;SDS011;11543;43.144;24.684;2022-10-28T05:28:37;8.10;;;4.53;;
22752;SDS011;11543;43.144;24.684;2022-10-28T05:31:05;6.82;;;4.32;;
22752;SDS011;11543;43.144;24.684;2022-10-28T05:33:31;9.52;;;3.80;;
22752;SDS011;11543;43.144;24.684;2022-10-28T05:35:58;8.88;;;4.30;;
22752;SDS011;11543;43.144;24.684;2022-10-28T05:38:23;19.67;;;5.40;;
22752;SDS011;11543;43.144;24.684;2022-10-28T05:40:49;11.98;;;6.53;;
22752;SDS011;11543;43.144;24.684;2022-10-28T05:43:14;16.92;;;7.63;;
22752;SDS011;11543;43.144;24.684;2022-10-28T05:45:40;16.15;;;8.18;;
22752;SDS011;11543;43.144;24.684;2022-10-28T05:48:05;21.67;;;8.00;;
22752;SDS011;11543;43.144;24.684;2022-10-28T05:50:31;16.15;;;6.85;;
22752;SDS011;11543;43.144;24.684;2022-10-28T05:52:56;17.80;;;8.32;;
22752;SDS011;11543;43.144;24.684;2022-10-28T05:55:23;14.15;;;7.68;;
22752;SDS011;11543;43.144;24.684;2022-10-28T05:57:51;13.05;;;7.32;;
22752;SDS011;11543;43.144;24.684;2022-10-28T06:00:18;12.63;;;7.57;;
22752;SDS011;11543;43.144;24.684;2022-10-28T06:02:45;22.13;;;7.45;;
22752;SDS011;11543;43.144;24.684;2022-10-28T06:05:11;14.63;;;6.50;;
22752;SDS011;11543;43.144;24.684;2022-10-28T06:07:37;13.98;;;6.82;;
22752;SDS011;11543;43.144;24.684;2022-10-28T06:10:04;18.17;;;9.10;;
22752;SDS011;11543;43.144;24.684;2022-10-28T06:12:31;14.55;;;8.20;;
22752;SDS011;11543;43.144;24.684;2022-10-28T06:14:56;14.80;;;7.93;;
22752;SDS011;11543;43.144;24.684;2022-10-28T06:17:22;12.93;;;7.18;;
22752;SDS011;11543;43.144;24.684;2022-10-28T06:19:48;14.52;;;7.03;;
22752;SDS011;11543;43.144;24.684;2022-10-28T06:22:13;13.13;;;6.28;;
22752;SDS011;11543;43.144;24.684;2022-10-28T06:24:39;12.15;;;5.97;;
22752;SDS011;11543;43.144;24.684;2022-10-28T06:27:04;9.88;;;5.53;;
22752;SDS011;11543;43.144;24.684;2022-10-28T06:29:31;14.80;;;5.78;;
22752;SDS011;11543;43.144;24.684;2022-10-28T06:31:56;10.73;;;5.78;;
22752;SDS011;11543;43.144;24.684;2022-10-28T06:34:22;11.48;;;5.05;;
22752;SDS011;11543;43.144;24.684;2022-10-28T06:36:47;12.70;;;4.85;;
22752;SDS011;11543;43.144;24.684;2022-10-28T06:39:13;13.38;;;5.15;;
22752;SDS011;11543;43.144;24.684;2022-10-28T06:41:39;9.15;;;4.85;;
22752;SDS011;11543;43.144;24.684;2022-10-28T06:44:09;10.88;;;4.95;;
22752;SDS011;11543;43.144;24.684;2022-10-28T06:46:34;9.02;;;4.93;;
22752;SDS011;11543;43.144;24.684;2022-10-28T06:49:05;10.93;;;5.13;;
22752;SDS011;11543;43.144;24.684;2022-10-28T06:51:30;11.07;;;4.85;;
22752;SDS011;11543;43.144;24.684;2022-10-28T06:53:56;12.50;;;4.97;;
22752;SDS011;11543;43.144;24.684;2022-10-28T06:56:22;9.20;;;5.32;;
22752;SDS011;11543;43.144;24.684;2022-10-28T07:09:38;13.82;;;4.97;;
22752;SDS011;11543;43.144;24.684;2022-10-28T07:12:05;9.25;;;3.90;;
22752;SDS011;11543;43.144;24.684;2022-10-28T07:14:31;7.15;;;3.60;;
22752;SDS011;11543;43.144;24.684;2022-10-28T07:16:58;8.75;;;4.13;;
22752;SDS011;11543;43.144;24.684;2022-10-28T07:19:24;12.07;;;4.30;;
22752;SDS011;11543;43.144;24.684;2022-10-28T07:21:49;12.13;;;4.50;;
22752;SDS011;11543;43.144;24.684;2022-10-28T07:24:15;7.03;;;4.40;;
22752;SDS011;11543;43.144;24.684;2022-10-28T07:26:40;7.88;;;4.07;;
22752;SDS011;11543;43.144;24.684;2022-10-28T07:29:06;9.80;;;4.00;;
22752;SDS011;11543;43.144;24.684;2022-10-28T07:31:31;8.32;;;4.35;;
22752;SDS011;11543;43.144;24.684;2022-10-28T07:33:57;7.22;;;4.38;;
22752;SDS011;11543;43.144;24.684;2022-10-28T07:36:25;11.95;;;6.22;;
22752;SDS011;11543;43.144;24.684;2022-10-28T07:38:50;20.40;;;10.75;;
22752;SDS011;11543;43.144;24.684;2022-10-28T07:41:17;23.35;;;10.90;;
22752;SDS011;11543;43.144;24.684;2022-10-28T07:43:44;23.67;;;10.50;;
22752;SDS011;11543;43.144;24.684;2022-10-28T07:46:10;79.95;;;39.20;;
22752;SDS011;11543;43.144;24.684;2022-10-28T07:48:36;28.77;;;14.63;;
22752;SDS011;11543;43.144;24.684;2022-10-28T07:51:02;16.05;;;8.52;;
22752;SDS011;11543;43.144;24.684;2022-10-28T07:53:30;21.08;;;10.77;;
22752;SDS011;11543;43.144;24.684;2022-10-28T07:55:56;15.75;;;7.95;;
22752;SDS011;11543;43.144;24.684;2022-10-28T07:58:22;15.13;;;5.38;;
22752;SDS011;11543;43.144;24.684;2022-10-28T08:00:48;10.77;;;5.40;;
22752;SDS011;11543;43.144;24.684;2022-10-28T08:03:13;12.77;;;5.60;;
22752;SDS011;11543;43.144;24.684;2022-10-28T08:05:38;11.93;;;5.10;;
22752;SDS011;11543;43.144;24.684;2022-10-28T08:08:04;10.00;;;4.63;;
22752;SDS011;11543;43.144;24.684;2022-10-28T08:10:29;6.75;;;4.00;;
22752;SDS011;11543;43.144;24.684;2022-10-28T08:12:55;11.70;;;4.20;;
22752;SDS011;11543;43.144;24.684;2022-10-28T08:15:22;9.60;;;4.68;;
22752;SDS011;11543;43.144;24.684;2022-10-28T08:17:51;11.23;;;5.75;;
22752;SDS011;11543;43.144;24.684;2022-10-28T08:20:17;113.60;;;55.05;;
22752;SDS011;11543;43.144;24.684;2022-10-28T08:22:43;221.00;;;103.95;;
22752;SDS011;11543;43.144;24.684;2022-10-28T08:25:09;95.43;;;43.63;;
22752;SDS011;11543;43.144;24.684;2022-10-28T08:27:35;58.15;;;26.92;;
22752;SDS011;11543;43.144;24.684;2022-10-28T08:30:00;39.78;;;18.25;;
22752;SDS011;11543;43.144;24.684;2022-10-28T08:32:25;34.35;;;13.50;;
22752;SDS011;11543;43.144;24.684;2022-10-28T08:34:51;23.67;;;9.45;;
22752;SDS011;11543;43.144;24.684;2022-10-28T08:37:16;11.93;;;4.90;;
22752;SDS011;11543;43.144;24.684;2022-10-28T08:39:42;28.60;;;10.55;;
22752;SDS011;11543;43.144;24.684;2022-10-28T08:42:24;38.60;;;12.15;;
22752;SDS011;11543;43.144;24.684;2022-10-28T08:47:49;18.08;;;6.93;;
22752;SDS011;11543;43.144;24.684;2022-10-28T08:50:17;20.33;;;5.38;;
22752;SDS011;11543;43.144;24.684;2022-10-28T09:00:53;40.20;;;15.43;;
22752;SDS011;11543;43.144;24.684;2022-10-28T09:03:31;25.30;;;11.93;;
22752;SDS011;11543;43.144;24.684;2022-10-28T09:06:06;13.40;;;4.75;;
22752;SDS011;11543;43.144;24.684;2022-10-28T09:08:41;14.13;;;4.68;;
22752;SDS011;11543;43.144;24.684;2022-10-28T09:16:47;14.10;;;4.72;;
22752;SDS011;11543;43.144;24.684;2022-10-28T09:20:00;10.40;;;4.05;;
22752;SDS011;11543;43.144;24.684;2022-10-28T09:22:31;14.38;;;4.45;;
22752;SDS011;11543;43.144;24.684;2022-10-28T09:25:05;21.98;;;6.40;;
22752;SDS011;11543;43.144;24.684;2022-10-28T09:36:22;10.75;;;4.00;;
22752;SDS011;11543;43.144;24.684;2022-10-28T09:38:57;14.65;;;4.38;;
22752;SDS011;11543;43.144;24.684;2022-10-28T09:41:31;13.45;;;5.03;;
22752;SDS011;11543;43.144;24.684;2022-10-28T09:46:32;7.35;;;2.85;;
22752;SDS011;11543;43.144;24.684;2022-10-28T09:49:01;5.78;;;2.78;;
22752;SDS011;11543;43.144;24.684;2022-10-28T09:54:00;7.18;;;2.95;;
22752;SDS011;11543;43.144;24.684;2022-10-28T09:56:26;6.53;;;2.70;;
22752;SDS011;11543;43.144;24.684;2022-10-28T09:58:54;6.38;;;2.35;;
22752;SDS011;11543;43.144;24.684;2022-10-28T10:01:23;4.85;;;2.30;;
22752;SDS011;11543;43.144;24.684;2022-10-28T10:03:49;5.95;;;2.60;;
22752;SDS011;11543;43.144;24.684;2022-10-28T10:11:21;7.20;;;2.90;;
22752;SDS011;11543;43.144;24.684;2022-10-28T10:14:08;7.45;;;2.30;;
22752;SDS011;11543;43.144;24.684;2022-10-28T10:16:38;18.05;;;8.20;;
22752;SDS011;11543;43.144;24.684;2022-10-28T10:19:09;40.70;;;21.02;;
22752;SDS011;11543;43.144;24.684;2022-10-28T10:27:16;24.10;;;12.68;;
22752;SDS011;11543;43.144;24.684;2022-10-28T10:29:45;89.80;;;38.33;;
22752;SDS011;11543;43.144;24.684;2022-10-28T10:34:41;22.58;;;8.80;;
22752;SDS011;11543;43.144;24.684;2022-10-28T10:37:14;11.38;;;4.40;;
22752;SDS011;11543;43.144;24.684;2022-10-28T10:40:32;12.25;;;4.55;;
22752;SDS011;11543;43.144;24.684;2022-10-28T10:42:47;4.88;;;2.00;;
22752;SDS011;11543;43.144;24.684;2022-10-28T10:47:46;6.18;;;2.80;;
22752;SDS011;11543;43.144;24.684;2022-10-28T10:52:50;4.72;;;1.88;;
22752;SDS011;11543;43.144;24.684;2022-10-28T10:55:31;5.10;;;1.90;;
22752;SDS011;11543;43.144;24.684;2022-10-28T11:00:30;2.67;;;1.50;;
22752;SDS011;11543;43.144;24.684;2022-10-28T11:03:01;3.40;;;1.55;;
22752;SDS011;11543;43.144;24.684;2022-10-28T11:05:29;3.85;;;1.77;;
22752;SDS011;11543;43.144;24.684;2022-10-28T11:07:55;6.45;;;2.00;;
22752;SDS011;11543;43.144;24.684;2022-10-28T11:10:29;3.58;;;1.70;;
22752;SDS011;11543;43.144;24.684;2022-10-28T11:13:22;4.78;;;2.30;;
22752;SDS011;11543;43.144;24.684;2022-10-28T11:15:58;5.93;;;2.55;;
22752;SDS011;11543;43.144;24.684;2022-10-28T11:18:36;5.18;;;2.17;;
22752;SDS011;11543;43.144;24.684;2022-10-28T11:21:06;5.72;;;2.03;;
22752;SDS011;11543;43.144;24.684;2022-10-28T11:26:23;4.82;;;2.30;;
22752;SDS011;11543;43.144;24.684;2022-10-28T11:34:37;8.25;;;1.73;;
22752;SDS011;11543;43.144;24.684;2022-10-28T11:42:29;3.53;;;1.58;;
22752;SDS011;11543;43.144;24.684;2022-10-28T11:51:27;7.93;;;1.95;;
22752;SDS011;11543;43.144;24.684;2022-10-28T11:56:48;3.72;;;1.63;;
22752;SDS011;11543;43.144;24.684;2022-10-28T12:07:58;5.07;;;1.50;;
22752;SDS011;11543;43.144;24.684;2022-10-28T12:18:54;4.05;;;1.50;;
22752;SDS011;11543;43.144;24.684;2022-10-28T12:21:34;12.77;;;6.40;;
22752;SDS011;11543;43.144;24.684;2022-10-28T12:24:04;3.80;;;1.60;;
22752;SDS011;11543;43.144;24.684;2022-10-28T12:26:37;21.73;;;10.27;;
22752;SDS011;11543;43.144;24.684;2022-10-28T12:29:52;12.45;;;5.32;;
22752;SDS011;11543;43.144;24.684;2022-10-28T12:32:04;81.30;;;38.27;;
22752;SDS011;11543;43.144;24.684;2022-10-28T12:34:34;15.27;;;5.30;;
22752;SDS011;11543;43.144;24.684;2022-10-28T12:37:07;16.15;;;6.95;;
22752;SDS011;11543;43.144;24.684;2022-10-28T12:39:38;21.73;;;10.07;;
22752;SDS011;11543;43.144;24.684;2022-10-28T12:42:22;18.95;;;6.68;;
22752;SDS011;11543;43.144;24.684;2022-10-28T12:44:52;10.95;;;4.57;;
22752;SDS011;11543;43.144;24.684;2022-10-28T12:47:40;108.55;;;42.83;;
22752;SDS011;11543;43.144;24.684;2022-10-28T12:50:18;135.82;;;56.55;;
22752;SDS011;11543;43.144;24.684;2022-10-28T12:58:29;17.58;;;7.35;;
22752;SDS011;11543;43.144;24.684;2022-10-28T13:01:09;47.15;;;18.27;;
22752;SDS011;11543;43.144;24.684;2022-10-28T13:03:38;21.63;;;8.10;;
22752;SDS011;11543;43.144;24.684;2022-10-28T13:06:56;18.55;;;6.03;;
22752;SDS011;11543;43.144;24.684;2022-10-28T13:18:11;13.38;;;6.35;;
22752;SDS011;11543;43.144;24.684;2022-10-28T13:20:46;20.65;;;8.52;;
22752;SDS011;11543;43.144;24.684;2022-10-28T13:25:50;20.25;;;8.93;;
22752;SDS011;11543;43.144;24.684;2022-10-28T13:28:18;42.20;;;17.60;;
22752;SDS011;11543;43.144;24.684;2022-10-28T13:30:55;11.13;;;4.60;;
22752;SDS011;11543;43.144;24.684;2022-10-28T13:33:24;13.35;;;4.88;;
22752;SDS011;11543;43.144;24.684;2022-10-28T13:35:52;10.63;;;4.85;;
22752;SDS011;11543;43.144;24.684;2022-10-28T13:38:23;7.45;;;3.42;;
22752;SDS011;11543;43.144;24.684;2022-10-28T13:49:24;9.90;;;2.45;;
22752;SDS011;11543;43.144;24.684;2022-10-28T13:51:51;6.78;;;1.70;;
22752;SDS011;11543;43.144;24.684;2022-10-28T13:59:40;11.02;;;2.13;;
22752;SDS011;11543;43.144;24.684;2022-10-28T14:02:20;7.72;;;2.15;;
22752;SDS011;11543;43.144;24.684;2022-10-28T14:04:56;4.25;;;2.35;;
22752;SDS011;11543;43.144;24.684;2022-10-28T14:07:27;17.98;;;4.93;;
22752;SDS011;11543;43.144;24.684;2022-10-28T14:10:37;8.73;;;2.78;;
22752;SDS011;11543;43.144;24.684;2022-10-28T14:12:49;9.50;;;3.35;;
22752;SDS011;11543;43.144;24.684;2022-10-28T14:15:22;9.98;;;2.58;;
22752;SDS011;11543;43.144;24.684;2022-10-28T14:17:57;8.93;;;3.20;;
22752;SDS011;11543;43.144;24.684;2022-10-28T14:20:27;8.07;;;3.40;;
22752;SDS011;11543;43.144;24.684;2022-10-28T14:23:16;7.85;;;3.17;;
22752;SDS011;11543;43.144;24.684;2022-10-28T14:33:33;13.97;;;2.87;;
22752;SDS011;11543;43.144;24.684;2022-10-28T14:36:12;9.23;;;3.40;;
22752;SDS011;11543;43.144;24.684;2022-10-28T14:50:52;10.55;;;2.72;;
22752;SDS011;11543;43.144;24.684;2022-10-28T14:53:26;5.85;;;2.20;;
22752;SDS011;11543;43.144;24.684;2022-10-28T14:58:49;8.15;;;4.15;;
22752;SDS011;11543;43.144;24.684;2022-10-28T15:01:19;13.07;;;5.20;;
22752;SDS011;11543;43.144;24.684;2022-10-28T15:03:55;22.05;;;7.78;;
22752;SDS011;11543;43.144;24.684;2022-10-28T15:06:36;19.50;;;7.40;;
22752;SDS011;11543;43.144;24.684;2022-10-28T15:09:13;22.15;;;8.32;;
22752;SDS011;11543;43.144;24.684;2022-10-28T15:11:40;21.50;;;7.95;;
22752;SDS011;11543;43.144;24.684;2022-10-28T15:16:49;20.85;;;8.23;;
22752;SDS011;11543;43.144;24.684;2022-10-28T15:19:16;41.25;;;20.27;;
22752;SDS011;11543;43.144;24.684;2022-10-28T15:21:57;27.48;;;12.10;;
22752;SDS011;11543;43.144;24.684;2022-10-28T15:25:04;38.50;;;23.38;;
22752;SDS011;11543;43.144;24.684;2022-10-28T15:27:40;47.55;;;29.95;;
22752;SDS011;11543;43.144;24.684;2022-10-28T15:30:29;51.80;;;34.45;;
22752;SDS011;11543;43.144;24.684;2022-10-28T15:33:16;45.63;;;30.95;;
22752;SDS011;11543;43.144;24.684;2022-10-28T15:35:42;54.85;;;39.03;;
22752;SDS011;11543;43.144;24.684;2022-10-28T15:40:45;38.13;;;26.50;;
22752;SDS011;11543;43.144;24.684;2022-10-28T15:43:44;31.02;;;20.85;;
22752;SDS011;11543;43.144;24.684;2022-10-28T15:48:33;19.33;;;10.43;;
22752;SDS011;11543;43.144;24.684;2022-10-28T15:53:40;16.70;;;9.00;;
22752;SDS011;11543;43.144;24.684;2022-10-28T15:58:39;11.98;;;6.82;;
22752;SDS011;11543;43.144;24.684;2022-10-28T16:01:25;9.55;;;5.45;;
22752;SDS011;11543;43.144;24.684;2022-10-28T16:03:53;13.35;;;5.43;;
22752;SDS011;11543;43.144;24.684;2022-10-28T16:06:20;10.07;;;5.35;;
22752;SDS011;11543;43.144;24.684;2022-10-28T16:08:48;16.40;;;7.40;;
22752;SDS011;11543;43.144;24.684;2022-10-28T16:17:04;18.35;;;9.25;;
22752;SDS011;11543;43.144;24.684;2022-10-28T16:19:33;18.60;;;10.25;;
22752;SDS011;11543;43.144;24.684;2022-10-28T16:22:02;12.82;;;8.00;;
22752;SDS011;11543;43.144;24.684;2022-10-28T16:24:29;12.27;;;6.80;;
22752;SDS011;11543;43.144;24.684;2022-10-28T16:27:07;13.43;;;6.50;;
22752;SDS011;11543;43.144;24.684;2022-10-28T16:29:40;12.75;;;6.40;;
22752;SDS011;11543;43.144;24.684;2022-10-28T16:32:06;13.70;;;5.80;;
22752;SDS011;11543;43.144;24.684;2022-10-28T16:34:35;10.02;;;4.15;;
22752;SDS011;11543;43.144;24.684;2022-10-28T16:37:02;7.40;;;4.30;;
22752;SDS011;11543;43.144;24.684;2022-10-28T16:39:27;8.00;;;4.07;;
22752;SDS011;11543;43.144;24.684;2022-10-28T16:41:53;13.77;;;6.35;;
22752;SDS011;11543;43.144;24.684;2022-10-28T16:44:20;12.20;;;7.30;;
22752;SDS011;11543;43.144;24.684;2022-10-28T16:46:48;14.32;;;8.05;;
22752;SDS011;11543;43.144;24.684;2022-10-28T16:49:13;13.65;;;7.63;;
22752;SDS011;11543;43.144;24.684;2022-10-28T16:51:39;14.25;;;6.10;;
22752;SDS011;11543;43.144;24.684;2022-10-28T16:54:05;7.70;;;5.00;;
22752;SDS011;11543;43.144;24.684;2022-10-28T16:56:31;9.05;;;4.25;;
22752;SDS011;11543;43.144;24.684;2022-10-28T16:58:57;11.43;;;4.10;;
22752;SDS011;11543;43.144;24.684;2022-10-28T17:01:23;9.65;;;4.78;;
22752;SDS011;11543;43.144;24.684;2022-10-28T17:03:49;9.23;;;5.78;;
22752;SDS011;11543;43.144;24.684;2022-10-28T17:06:14;12.25;;;6.97;;
22752;SDS011;11543;43.144;24.684;2022-10-28T17:08:40;11.55;;;7.45;;
22752;SDS011;11543;43.144;24.684;2022-10-28T17:11:06;10.77;;;6.25;;
22752;SDS011;11543;43.144;24.684;2022-10-28T17:13:32;9.85;;;5.75;;
22752;SDS011;11543;43.144;24.684;2022-10-28T17:15:58;7.95;;;4.95;;
22752;SDS011;11543;43.144;24.684;2022-10-28T17:18:25;13.60;;;8.05;;
22752;SDS011;11543;43.144;24.684;2022-10-28T17:21:00;15.57;;;9.13;;
22752;SDS011;11543;43.144;24.684;2022-10-28T17:23:27;14.63;;;8.75;;
22752;SDS011;11543;43.144;24.684;2022-10-28T17:25:59;14.45;;;9.00;;
22752;SDS011;11543;43.144;24.684;2022-10-28T17:28:26;19.58;;;12.55;;
22752;SDS011;11543;43.144;24.684;2022-10-28T17:30:52;16.63;;;10.80;;
22752;SDS011;11543;43.144;24.684;2022-10-28T17:33:17;25.65;;;13.10;;
22752;SDS011;11543;43.144;24.684;2022-10-28T17:35:43;23.83;;;12.70;;
22752;SDS011;11543;43.144;24.684;2022-10-28T17:38:08;23.25;;;13.95;;
22752;SDS011;11543;43.144;24.684;2022-10-28T17:40:34;31.45;;;17.08;;
22752;SDS011;11543;43.144;24.684;2022-10-28T17:42:59;31.58;;;19.90;;
22752;SDS011;11543;43.144;24.684;2022-10-28T17:45:25;26.65;;;16.67;;
22752;SDS011;11543;43.144;24.684;2022-10-28T17:47:51;23.80;;;14.30;;
22752;SDS011;11543;43.144;24.684;2022-10-28T17:50:17;15.15;;;9.77;;
22752;SDS011;11543;43.144;24.684;2022-10-28T17:52:42;15.32;;;10.32;;
22752;SDS011;11543;43.144;24.684;2022-10-28T17:55:08;17.08;;;10.27;;
22752;SDS011;11543;43.144;24.684;2022-10-28T17:57:34;16.27;;;9.45;;
22752;SDS011;11543;43.144;24.684;2022-10-28T17:59:59;17.38;;;11.57;;
22752;SDS011;11543;43.144;24.684;2022-10-28T18:02:25;21.30;;;14.05;;
22752;SDS011;11543;43.144;24.684;2022-10-28T18:04:50;25.00;;;12.68;;
22752;SDS011;11543;43.144;24.684;2022-10-28T18:07:16;23.77;;;12.55;;
22752;SDS011;11543;43.144;24.684;2022-10-28T18:09:41;38.58;;;17.58;;
22752;SDS011;11543;43.144;24.684;2022-10-28T18:12:07;26.38;;;17.83;;
22752;SDS011;11543;43.144;24.684;2022-10-28T18:14:33;28.15;;;16.60;;
22752;SDS011;11543;43.144;24.684;2022-10-28T18:16:59;29.92;;;16.48;;
22752;SDS011;11543;43.144;24.684;2022-10-28T18:19:24;19.13;;;12.07;;
22752;SDS011;11543;43.144;24.684;2022-10-28T18:21:50;15.75;;;9.38;;
22752;SDS011;11543;43.144;24.684;2022-10-28T18:24:17;16.85;;;9.98;;
22752;SDS011;11543;43.144;24.684;2022-10-28T18:26:43;19.88;;;10.38;;